Martinsburg, Ohio
Current Conditions -  °F | °C
As of 6:36 AM on Thursday 18 Dec 2014 (Local Time) from K4I3 Reporting Station
Overcast Overcast  
Wind Chill: 19°   Ceiling: 1700
Heat Index: 27°   Visibility: 10mi
Dew Point: 21°   Wind: 7mph
Humidity: 80%   Direction: 300°WNW
Pressure: 30.2"   Gusts: NA
Location:  40.27°N, 82.35°W
Report Text: K4I3 181136Z AUTO 30006KT 10SM OVC017 M03/M06 A3020 RMK AO2
Loading
Personal Weather Stations






























Interactive Weather Map New forecast layout! Learn more

10-Day Weather Forecast

Advertisements
Track Severe Weather on mobile